createdAt,value
2018-08-07T00:01:14.014Z,68.68
2018-08-07T00:02:14.302Z,69.36
2018-08-07T00:04:07.439Z,68.98
2018-08-07T00:05:07.040Z,68.59
2018-08-07T00:07:00.430Z,69.62
2018-08-07T00:08:00.692Z,69.52
2018-08-07T00:09:55.725Z,69.32
2018-08-07T00:10:54.181Z,69.62
2018-08-07T00:12:47.535Z,70.39
2018-08-07T00:13:47.192Z,70.10
2018-08-07T00:15:42.876Z,70.58
2018-08-07T00:16:40.668Z,69.90
2018-08-07T00:18:34.018Z,70.10
2018-08-07T00:19:33.743Z,70.20
2018-08-07T00:21:27.436Z,70.20
2018-08-07T00:22:27.438Z,70.10
2018-08-07T00:24:20.782Z,69.71
2018-08-07T00:25:20.462Z,70.00
2018-08-07T00:27:14.190Z,69.90
2018-08-07T00:28:14.221Z,70.84
2018-08-07T00:30:07.609Z,71.22
2018-08-07T00:31:07.630Z,71.70
2018-08-07T00:33:00.718Z,71.22
2018-08-07T00:34:00.943Z,70.74
2018-08-07T00:35:54.337Z,70.16
2018-08-07T00:36:54.357Z,70.64
2018-08-07T00:38:47.744Z,71.70
2018-08-07T00:39:47.717Z,71.03
2018-08-07T00:41:42.150Z,70.84
2018-08-07T00:42:41.067Z,71.12
2018-08-07T00:44:37.984Z,71.03
2018-08-07T00:45:37.920Z,72.00
2018-08-07T00:47:28.861Z,72.28
2018-08-07T00:48:28.520Z,71.70
2018-08-07T00:50:23.296Z,71.51
2018-08-07T00:51:21.898Z,72.19
2018-08-07T00:53:16.216Z,72.58
2018-08-07T00:54:16.141Z,72.58
2018-08-07T00:56:09.627Z,72.19
2018-08-07T00:57:09.523Z,72.28
2018-08-07T00:59:02.643Z,72.00
2018-08-07T01:00:02.563Z,72.38
2018-08-07T01:01:55.968Z,72.06
2018-08-07T01:02:55.595Z,72.63
2018-08-07T01:04:49.325Z,73.60
2018-08-07T01:05:49.307Z,73.31
2018-08-07T01:07:42.338Z,73.79
2018-08-07T01:08:42.334Z,73.50
2018-08-07T01:10:35.748Z,74.47
2018-08-07T01:11:35.296Z,74.47
2018-08-07T01:13:29.634Z,73.69
2018-08-07T01:14:28.724Z,74.08
2018-08-07T01:16:22.956Z,74.27
2018-08-07T01:17:22.088Z,74.37
2018-08-07T01:19:15.857Z,74.82
2018-08-07T01:20:15.486Z,75.10
2018-08-07T01:22:09.194Z,75.10
2018-08-07T01:23:09.218Z,75.40
2018-08-07T01:25:04.908Z,75.49
2018-08-07T01:26:02.237Z,75.40
2018-08-07T01:28:01.171Z,75.59
2018-08-07T01:29:00.432Z,75.88
2018-08-07T01:30:57.473Z,75.40
2018-08-07T01:31:56.396Z,74.82
2018-08-07T01:33:49.742Z,76.13
2018-08-07T01:34:49.408Z,75.88
2018-08-07T01:36:43.836Z,75.93
2018-08-07T01:37:43.094Z,75.93
2018-08-07T01:39:36.563Z,75.40
2018-08-07T01:40:36.494Z,75.16
2018-08-07T01:42:29.378Z,75.07
2018-08-07T01:43:29.342Z,75.26
2018-08-07T01:45:22.851Z,75.65
2018-08-07T01:46:22.459Z,75.26
2018-08-07T01:48:18.296Z,74.82
2018-08-07T01:49:15.895Z,74.72
2018-08-07T01:51:13.693Z,74.78
2018-08-07T01:52:11.552Z,75.07
2018-08-07T01:54:04.925Z,75.16
2018-08-07T01:55:04.577Z,75.26
2018-08-07T01:56:59.341Z,76.13
2018-08-07T01:57:58.298Z,75.26
2018-08-07T01:59:56.261Z,75.55
2018-08-07T02:00:56.195Z,75.26
2018-08-07T02:02:49.555Z,75.55
2018-08-07T02:03:49.230Z,76.03
2018-08-07T02:05:42.903Z,76.23
2018-08-07T02:06:42.587Z,75.16
2018-08-07T02:08:36.344Z,75.55
2018-08-07T02:10:49.739Z,75.93
2018-08-07T02:11:49.745Z,76.32
2018-08-07T02:13:42.700Z,76.13
2018-08-07T02:14:42.253Z,76.71
2018-08-07T02:16:36.033Z,75.74
2018-08-07T02:17:36.054Z,75.07
2018-08-07T02:19:29.466Z,73.72
2018-08-07T02:20:29.400Z,74.74
2018-08-07T02:22:22.839Z,76.09
2018-08-07T02:23:24.250Z,75.13
2018-08-07T02:25:17.239Z,74.68
2018-08-07T02:26:17.152Z,74.93
2018-08-07T02:28:10.544Z,74.36
2018-08-07T02:29:10.179Z,74.20
2018-08-07T02:31:03.913Z,73.53
2018-08-07T02:32:03.966Z,73.97
2018-08-07T02:34:00.499Z,74.36
2018-08-07T02:34:58.829Z,74.74
2018-08-07T02:36:56.399Z,73.97
2018-08-07T02:37:51.684Z,73.10
2018-08-07T02:39:45.055Z,73.78
2018-08-07T02:40:44.701Z,73.39
2018-08-07T02:42:38.453Z,73.10
2018-08-07T02:43:38.096Z,72.91
2018-08-07T02:45:31.467Z,73.88
2018-08-07T02:46:31.443Z,73.88
2018-08-07T02:48:27.872Z,73.01
2018-08-07T02:49:24.464Z,73.49
2018-08-07T02:51:20.822Z,73.20
2018-08-07T02:52:20.750Z,73.49
2018-08-07T02:54:14.109Z,73.20
2018-08-07T02:55:13.701Z,72.33
2018-08-07T02:57:08.499Z,73.20
2018-08-07T02:58:06.917Z,73.20
2018-08-07T03:00:07.060Z,72.66
2018-08-07T03:01:00.362Z,73.01
2018-08-07T03:02:54.697Z,73.14
2018-08-07T03:03:54.688Z,72.72
2018-08-07T03:05:47.785Z,73.58
2018-08-07T03:06:48.048Z,74.55
2018-08-07T03:08:43.509Z,73.20
2018-08-07T03:09:41.181Z,74.16
2018-08-07T03:11:42.799Z,73.58
2018-08-07T03:12:41.323Z,73.58
2018-08-07T03:14:34.690Z,74.74
2018-08-07T03:15:34.372Z,74.93
2018-08-07T03:17:32.205Z,74.93
2018-08-07T03:18:28.055Z,73.88
2018-08-07T03:20:25.492Z,74.84
2018-08-07T03:21:21.129Z,74.07
2018-08-07T03:23:14.845Z,73.78
2018-08-07T03:24:14.497Z,73.88
2018-08-07T03:26:07.847Z,74.45
2018-08-07T03:27:07.849Z,74.16
2018-08-07T03:29:01.745Z,74.45
2018-08-07T03:30:00.863Z,74.84
2018-08-07T03:31:54.651Z,74.16
2018-08-07T03:32:54.803Z,73.97
2018-08-07T03:34:51.065Z,73.78
2018-08-07T03:35:48.087Z,73.88
2018-08-07T03:37:42.563Z,74.55
2018-08-07T03:38:41.055Z,74.84
2018-08-07T03:40:35.357Z,74.36
2018-08-07T03:41:34.713Z,73.88
2018-08-07T03:43:29.710Z,75.23
2018-08-07T03:44:28.094Z,75.32
2018-08-07T03:46:50.540Z,74.93
2018-08-07T18:04:23.917Z,38.76
2018-08-07T18:05:23.910Z,37.69
2018-08-07T18:07:16.991Z,37.59
2018-08-07T18:08:16.824Z,36.80
2018-08-07T18:10:10.260Z,37.19
2018-08-07T18:11:10.202Z,37.19
2018-08-07T18:13:04.465Z,36.90
2018-08-07T18:14:04.457Z,35.71
2018-08-07T18:15:57.917Z,34.36
2018-08-07T18:16:57.844Z,35.93
2018-08-07T18:18:51.817Z,35.44
2018-08-07T18:19:51.235Z,36.32
2018-08-07T18:21:44.898Z,34.06
2018-08-07T18:22:44.606Z,35.53
2018-08-07T18:24:37.762Z,35.73
2018-08-07T18:25:37.584Z,35.52
2018-08-07T18:27:30.717Z,34.45
2018-08-07T18:28:30.473Z,34.83
2018-08-07T18:30:25.234Z,32.01
2018-08-07T18:31:24.141Z,31.81
2018-08-07T18:33:17.615Z,32.42
2018-08-07T18:34:17.265Z,34.08
2018-08-07T18:36:10.212Z,33.59
2018-08-07T18:37:10.178Z,34.77
2018-08-07T18:39:03.336Z,35.04
2018-08-07T18:40:03.090Z,33.67
2018-08-07T18:41:56.804Z,35.04
2018-08-07T18:42:55.971Z,34.24
2018-08-07T18:45:41.702Z,34.93
2018-08-07T18:46:41.250Z,34.83
2018-08-07T18:48:35.670Z,34.93
2018-08-07T18:49:35.635Z,35.91
2018-08-07T18:51:29.082Z,34.44
2018-08-07T18:52:29.056Z,35.71
2018-08-07T18:54:23.577Z,36.28
2018-08-07T18:55:22.476Z,35.79
2018-08-07T18:57:15.934Z,37.06
2018-08-07T18:58:15.910Z,36.57
2018-08-07T19:00:09.335Z,37.35
2018-08-07T19:01:09.298Z,34.62
2018-08-07T19:03:04.236Z,36.67
2018-08-07T19:04:02.707Z,36.38
2018-08-07T19:05:56.105Z,38.12
2018-08-07T19:06:56.112Z,36.67
2018-08-07T19:08:49.574Z,37.83
2018-08-07T19:09:49.506Z,37.73
2018-08-07T19:11:43.483Z,38.32
2018-08-07T19:12:42.938Z,36.46
2018-08-07T19:14:36.311Z,36.46
2018-08-07T19:15:36.300Z,36.55
2018-08-07T19:17:29.419Z,36.55
2018-08-07T19:18:29.255Z,38.10
2018-08-07T19:20:22.435Z,38.49
2018-08-07T19:21:22.118Z,37.41
2018-08-07T19:23:15.785Z,37.41
2018-08-07T19:24:15.534Z,37.32
2018-08-07T19:26:09.163Z,36.93
2018-08-07T19:27:08.891Z,37.02
2018-08-07T19:29:02.313Z,38.01
2018-08-07T19:30:02.284Z,38.87
2018-08-07T19:31:55.438Z,38.57
2018-08-07T19:32:55.175Z,38.18
2018-08-07T19:34:48.583Z,38.18
2018-08-07T19:35:48.572Z,38.67
2018-08-07T19:37:42.329Z,38.65
2018-08-07T19:38:41.986Z,38.84
2018-08-07T19:40:35.249Z,39.14
2018-08-07T19:41:34.848Z,39.04
2018-08-07T19:43:28.541Z,39.53
2018-08-07T19:44:28.250Z,39.72
2018-08-07T19:46:21.254Z,39.72
2018-08-07T19:47:21.154Z,40.00
2018-08-07T19:49:14.156Z,40.97
2018-08-07T19:50:14.044Z,40.88
2018-08-07T19:52:07.337Z,40.68
2018-08-07T19:53:07.946Z,40.48
2018-08-07T19:55:00.662Z,40.78
2018-08-07T19:56:00.770Z,41.15
2018-08-07T19:57:55.233Z,41.54
2018-08-07T19:58:55.109Z,41.54
2018-08-07T20:00:48.542Z,41.05
2018-08-07T20:01:48.401Z,42.12
2018-08-07T20:03:41.947Z,41.54
2018-08-07T20:04:41.522Z,42.22
2018-08-07T20:06:36.260Z,43.85
2018-08-07T20:07:34.405Z,44.05
2018-08-07T20:09:28.152Z,43.57
2018-08-07T20:10:27.935Z,43.66
2018-08-07T20:12:20.988Z,43.47
2018-08-07T20:13:20.693Z,43.74
2018-08-07T20:15:14.281Z,44.52
2018-08-07T20:16:14.047Z,44.03
2018-08-07T20:18:07.553Z,43.93
2018-08-07T20:19:07.448Z,44.42
2018-08-07T20:21:00.414Z,44.42
2018-08-07T20:22:00.335Z,45.29
2018-08-07T20:23:53.835Z,45.86
2018-08-07T20:24:53.740Z,46.54
2018-08-07T20:26:47.145Z,46.54
2018-08-07T20:27:47.106Z,45.86
2018-08-07T20:29:40.520Z,46.34
2018-08-07T20:30:40.550Z,46.71
2018-08-07T20:32:33.406Z,47.32
2018-08-07T20:33:33.398Z,46.93
2018-08-07T20:35:27.584Z,46.83
2018-08-07T20:36:26.832Z,47.00
2018-08-07T20:38:20.458Z,46.81
2018-08-07T20:39:20.177Z,46.71
2018-08-07T20:41:13.397Z,47.78
2018-08-07T20:42:13.355Z,47.30
2018-08-07T20:44:07.372Z,46.91
2018-08-07T20:45:07.328Z,47.39
2018-08-07T20:47:03.293Z,48.34
2018-08-07T20:48:03.285Z,48.07
2018-08-07T20:49:57.656Z,48.25
2018-08-07T20:50:57.642Z,48.15
2018-08-07T20:52:50.978Z,48.63
2018-08-07T20:53:51.304Z,48.83
2018-08-07T20:55:43.997Z,47.96
2018-08-07T20:56:44.462Z,48.25
2018-08-07T20:58:37.281Z,47.86
2018-08-07T20:59:37.001Z,48.73
2018-08-07T21:01:30.748Z,48.54
2018-08-07T21:02:30.400Z,47.96
2018-08-07T21:04:23.985Z,48.34
2018-08-07T21:05:23.776Z,47.86
2018-08-07T21:07:17.004Z,48.73
2018-08-07T21:08:16.676Z,48.83
2018-08-07T21:10:10.485Z,48.93
2018-08-07T21:11:10.359Z,48.63
2018-08-07T21:13:03.765Z,49.12
2018-08-07T21:14:03.443Z,49.80
2018-08-07T21:15:56.953Z,49.61
2018-08-07T21:16:57.294Z,49.32
2018-08-07T21:18:50.616Z,48.63
2018-08-07T21:19:50.596Z,47.76
2018-08-07T21:21:44.005Z,46.20
2018-08-07T21:22:44.034Z,45.23
2018-08-07T21:24:37.314Z,45.35
2018-08-07T21:25:36.977Z,43.50
2018-08-07T21:27:30.888Z,42.63
2018-08-07T21:28:32.267Z,43.11
2018-08-07T21:30:23.776Z,42.55
2018-08-07T21:31:23.744Z,42.16
2018-08-07T21:33:17.450Z,41.86
2018-08-07T21:34:17.139Z,41.28
2018-08-07T21:36:10.861Z,41.86
2018-08-07T21:37:10.871Z,41.86
2018-08-07T21:39:04.239Z,41.48
2018-08-07T21:40:03.900Z,41.77
2018-08-07T21:41:56.821Z,42.25
2018-08-07T21:42:56.827Z,42.35
2018-08-07T21:44:51.037Z,42.45
2018-08-07T21:45:50.249Z,42.25
2018-08-07T21:47:43.323Z,43.43
2018-08-07T21:48:43.071Z,42.82
2018-08-07T21:50:36.287Z,43.11
2018-08-07T21:51:36.562Z,43.99
2018-08-07T21:53:30.183Z,43.11
2018-08-07T21:54:29.355Z,43.21
2018-08-07T21:56:23.007Z,44.45
2018-08-07T21:57:22.743Z,44.45
2018-08-07T21:59:15.769Z,44.94
2018-08-07T22:00:15.771Z,44.65
2018-08-07T22:02:09.348Z,45.04
2018-08-07T22:03:09.165Z,45.04
2018-08-07T22:05:02.829Z,44.65
2018-08-07T22:06:02.821Z,44.74
2018-08-07T22:07:55.947Z,44.35
2018-08-07T22:08:56.203Z,44.45
2018-08-07T22:10:49.614Z,43.77
2018-08-07T22:11:49.579Z,43.58
2018-08-07T22:13:42.740Z,43.60
2018-08-07T22:14:42.692Z,43.40
2018-08-07T22:16:35.854Z,43.89
2018-08-07T22:17:35.589Z,43.70
2018-08-07T22:19:28.848Z,43.89
2018-08-07T22:20:29.041Z,43.79
2018-08-07T22:22:21.683Z,43.99
2018-08-07T22:23:21.387Z,43.89
2018-08-07T22:25:14.789Z,44.38
2018-08-07T22:26:15.038Z,44.28
2018-08-07T22:28:07.955Z,44.38
2018-08-07T22:29:07.971Z,44.48
2018-08-07T22:31:00.956Z,44.38
2018-08-07T22:32:00.605Z,44.86
2018-08-07T22:33:54.438Z,44.84
2018-08-07T22:34:54.000Z,45.04
2018-08-07T22:36:47.662Z,45.52
2018-08-07T22:37:47.711Z,45.32
2018-08-07T22:39:41.134Z,45.32
2018-08-07T22:40:40.736Z,45.62
2018-08-07T22:42:36.918Z,46.30
2018-08-07T22:43:35.698Z,46.11
2018-08-07T22:45:28.861Z,45.91
2018-08-07T22:46:28.525Z,46.03
2018-08-07T22:48:22.248Z,46.03
2018-08-07T22:49:22.232Z,46.32
2018-08-07T22:51:16.261Z,45.84
2018-08-07T22:52:15.603Z,45.84
2018-08-07T22:54:09.194Z,46.32
2018-08-07T22:55:09.097Z,46.42
2018-08-07T22:57:02.484Z,46.51
2018-08-07T22:58:01.927Z,46.69
2018-08-07T22:59:55.983Z,47.37
2018-08-07T23:00:55.318Z,47.27
2018-08-07T23:02:48.815Z,47.47
2018-08-07T23:03:48.344Z,47.96
2018-08-07T23:05:43.153Z,47.37
2018-08-07T23:06:42.042Z,47.47
2018-08-07T23:08:36.020Z,47.96
2018-08-07T23:09:35.675Z,48.54
2018-08-07T23:11:29.645Z,48.93
2018-08-07T23:12:29.087Z,48.73
2018-08-07T23:14:22.495Z,49.71
2018-08-07T23:15:22.447Z,49.61
2018-08-07T23:17:16.199Z,49.58
2018-08-07T23:18:15.862Z,50.36
2018-08-07T23:20:09.263Z,50.95
2018-08-07T23:21:09.236Z,50.95
2018-08-07T23:23:02.951Z,50.95
2018-08-07T23:24:03.174Z,50.95
2018-08-07T23:25:56.930Z,51.33
2018-08-07T23:26:56.018Z,51.43
2018-08-07T23:28:49.805Z,51.99
2018-08-07T23:29:49.403Z,52.57
2018-08-07T23:31:43.151Z,52.76
2018-08-07T23:32:42.788Z,53.06
2018-08-07T23:34:36.579Z,53.74
2018-08-07T23:35:36.174Z,52.76
2018-08-07T23:37:30.884Z,53.93
2018-08-07T23:38:29.550Z,53.93
2018-08-07T23:40:22.506Z,53.83
2018-08-07T23:41:23.267Z,54.22
2018-08-07T23:43:16.248Z,54.29
2018-08-07T23:44:15.856Z,54.78
2018-08-07T23:46:09.520Z,54.97
2018-08-07T23:47:09.775Z,54.88
2018-08-07T23:49:02.434Z,55.07
2018-08-07T23:50:02.988Z,55.07
2018-08-07T23:51:55.824Z,55.85
2018-08-07T23:52:55.516Z,56.04
2018-08-07T23:54:48.791Z,55.85
2018-08-07T23:55:48.409Z,56.24
2018-08-07T23:57:41.830Z,56.70
2018-08-07T23:58:42.184Z,57.11
